Terminal Aerodrome Forecast
Issued by NWS Sioux Falls, SD

Home | Current Version | Previous Version | Graphics & Text | Print | Product List | Glossary On
Versions: 1 2 3 4 5 6 7 8 9 10 11 12 13 14
000
FTUS43 KFSD 131000 AAA
TAFSUX
TAF AMD
KSUX 131042Z 1311/1406 01016G24KT P6SM BKN012 BKN080
     FM131500 01018G27KT P6SM -RA BKN020 OVC040
     FM131700 36025G35KT P6SM -RA OVC020
     FM132000 36022G33KT 6SM -SNRA OVC025
     FM140000 35020G32KT P6SM SCT025 OVC080=

USA.gov is the U.S. government's official web portal to all federal, state and local government web resources and services.